sensor_id;sensor_type;location;lat;lon;timestamp;P1;durP1;ratioP1;P2;durP2;ratioP2
7661;SDS011;30314;48.184;11.510;2022-07-29T00:01:57;1.80;;;1.20;;
7661;SDS011;30314;48.184;11.510;2022-07-29T00:04:26;4.67;;;1.20;;
7661;SDS011;30314;48.184;11.510;2022-07-29T00:06:54;2.53;;;1.27;;
7661;SDS011;30314;48.184;11.510;2022-07-29T00:09:21;2.17;;;1.27;;
7661;SDS011;30314;48.184;11.510;2022-07-29T00:11:49;1.63;;;0.80;;
7661;SDS011;30314;48.184;11.510;2022-07-29T00:14:17;2.80;;;1.50;;
7661;SDS011;30314;48.184;11.510;2022-07-29T00:16:44;2.43;;;1.40;;
7661;SDS011;30314;48.184;11.510;2022-07-29T00:19:12;2.50;;;0.97;;
7661;SDS011;30314;48.184;11.510;2022-07-29T00:21:41;2.90;;;1.33;;
7661;SDS011;30314;48.184;11.510;2022-07-29T00:24:09;3.20;;;1.43;;
7661;SDS011;30314;48.184;11.510;2022-07-29T00:26:37;3.27;;;1.60;;
7661;SDS011;30314;48.184;11.510;2022-07-29T00:29:04;2.87;;;1.70;;
7661;SDS011;30314;48.184;11.510;2022-07-29T00:31:52;3.03;;;1.53;;
7661;SDS011;30314;48.184;11.510;2022-07-29T00:34:20;2.60;;;1.30;;
7661;SDS011;30314;48.184;11.510;2022-07-29T00:37:06;3.60;;;1.23;;
7661;SDS011;30314;48.184;11.510;2022-07-29T00:39:34;2.03;;;1.53;;
7661;SDS011;30314;48.184;11.510;2022-07-29T00:42:02;4.90;;;1.83;;
7661;SDS011;30314;48.184;11.510;2022-07-29T00:44:30;3.30;;;1.57;;
7661;SDS011;30314;48.184;11.510;2022-07-29T00:47:03;4.77;;;1.90;;
7661;SDS011;30314;48.184;11.510;2022-07-29T00:49:31;1.53;;;1.43;;
7661;SDS011;30314;48.184;11.510;2022-07-29T00:52:00;2.70;;;1.23;;
7661;SDS011;30314;48.184;11.510;2022-07-29T00:54:29;2.80;;;1.60;;
7661;SDS011;30314;48.184;11.510;2022-07-29T00:56:58;1.97;;;1.30;;
7661;SDS011;30314;48.184;11.510;2022-07-29T00:59:26;2.87;;;1.60;;
7661;SDS011;30314;48.184;11.510;2022-07-29T01:02:00;2.70;;;1.40;;
7661;SDS011;30314;48.184;11.510;2022-07-29T01:04:29;3.20;;;1.50;;
7661;SDS011;30314;48.184;11.510;2022-07-29T01:06:57;1.53;;;1.40;;
7661;SDS011;30314;48.184;11.510;2022-07-29T01:09:27;1.57;;;1.30;;
7661;SDS011;30314;48.184;11.510;2022-07-29T01:12:12;1.60;;;1.30;;
7661;SDS011;30314;48.184;11.510;2022-07-29T01:14:44;1.93;;;1.27;;
7661;SDS011;30314;48.184;11.510;2022-07-29T01:17:14;2.10;;;1.70;;
7661;SDS011;30314;48.184;11.510;2022-07-29T01:19:49;8.57;;;1.70;;
7661;SDS011;30314;48.184;11.510;2022-07-29T01:22:27;3.30;;;1.63;;
7661;SDS011;30314;48.184;11.510;2022-07-29T01:25:09;2.63;;;1.50;;
7661;SDS011;30314;48.184;11.510;2022-07-29T01:27:47;2.17;;;1.53;;
7661;SDS011;30314;48.184;11.510;2022-07-29T01:30:30;2.07;;;1.60;;
7661;SDS011;30314;48.184;11.510;2022-07-29T01:33:02;2.13;;;1.40;;
7661;SDS011;30314;48.184;11.510;2022-07-29T01:35:33;2.03;;;1.60;;
7661;SDS011;30314;48.184;11.510;2022-07-29T01:38:05;3.33;;;1.60;;
7661;SDS011;30314;48.184;11.510;2022-07-29T01:40:40;3.40;;;1.20;;
7661;SDS011;30314;48.184;11.510;2022-07-29T01:43:14;2.17;;;1.60;;
7661;SDS011;30314;48.184;11.510;2022-07-29T01:45:48;2.10;;;1.57;;
7661;SDS011;30314;48.184;11.510;2022-07-29T01:48:21;3.53;;;1.83;;
7661;SDS011;30314;48.184;11.510;2022-07-29T01:50:53;5.97;;;1.70;;
7661;SDS011;30314;48.184;11.510;2022-07-29T01:53:47;2.03;;;1.27;;
7661;SDS011;30314;48.184;11.510;2022-07-29T01:56:21;2.70;;;1.57;;
7661;SDS011;30314;48.184;11.510;2022-07-29T01:58:51;8.67;;;2.60;;
7661;SDS011;30314;48.184;11.510;2022-07-29T02:01:22;2.80;;;1.50;;
7661;SDS011;30314;48.184;11.510;2022-07-29T02:03:52;1.90;;;1.47;;
7661;SDS011;30314;48.184;11.510;2022-07-29T02:06:22;2.53;;;1.57;;
7661;SDS011;30314;48.184;11.510;2022-07-29T02:08:51;3.37;;;2.13;;
7661;SDS011;30314;48.184;11.510;2022-07-29T02:11:20;5.20;;;1.77;;
7661;SDS011;30314;48.184;11.510;2022-07-29T02:13:48;3.07;;;1.30;;
7661;SDS011;30314;48.184;11.510;2022-07-29T02:16:19;3.50;;;1.90;;
7661;SDS011;30314;48.184;11.510;2022-07-29T02:18:51;2.17;;;1.50;;
7661;SDS011;30314;48.184;11.510;2022-07-29T02:21:22;2.73;;;1.80;;
7661;SDS011;30314;48.184;11.510;2022-07-29T02:23:52;2.33;;;1.40;;
7661;SDS011;30314;48.184;11.510;2022-07-29T02:26:22;4.60;;;1.50;;
7661;SDS011;30314;48.184;11.510;2022-07-29T02:28:52;2.43;;;1.90;;
7661;SDS011;30314;48.184;11.510;2022-07-29T02:31:25;2.43;;;1.60;;
7661;SDS011;30314;48.184;11.510;2022-07-29T02:33:57;3.23;;;2.20;;
7661;SDS011;30314;48.184;11.510;2022-07-29T02:36:26;8.20;;;7.50;;
7661;SDS011;30314;48.184;11.510;2022-07-29T02:38:55;5.27;;;4.73;;
7661;SDS011;30314;48.184;11.510;2022-07-29T02:41:28;3.90;;;3.60;;
7661;SDS011;30314;48.184;11.510;2022-07-29T02:44:02;3.43;;;2.57;;
7661;SDS011;30314;48.184;11.510;2022-07-29T02:46:35;2.20;;;2.00;;
7661;SDS011;30314;48.184;11.510;2022-07-29T02:49:06;1.87;;;1.50;;
7661;SDS011;30314;48.184;11.510;2022-07-29T02:51:41;2.43;;;1.63;;
7661;SDS011;30314;48.184;11.510;2022-07-29T02:54:15;2.67;;;1.70;;
7661;SDS011;30314;48.184;11.510;2022-07-29T02:56:49;2.60;;;1.40;;
7661;SDS011;30314;48.184;11.510;2022-07-29T02:59:22;4.40;;;1.70;;
7661;SDS011;30314;48.184;11.510;2022-07-29T03:01:55;3.90;;;1.57;;
7661;SDS011;30314;48.184;11.510;2022-07-29T03:04:26;1.93;;;1.30;;
7661;SDS011;30314;48.184;11.510;2022-07-29T03:06:56;5.23;;;1.60;;
7661;SDS011;30314;48.184;11.510;2022-07-29T03:09:26;1.83;;;1.60;;
7661;SDS011;30314;48.184;11.510;2022-07-29T03:11:55;2.20;;;1.30;;
7661;SDS011;30314;48.184;11.510;2022-07-29T03:14:24;3.00;;;1.50;;
7661;SDS011;30314;48.184;11.510;2022-07-29T03:16:53;1.73;;;1.60;;
7661;SDS011;30314;48.184;11.510;2022-07-29T03:19:22;1.60;;;1.30;;
7661;SDS011;30314;48.184;11.510;2022-07-29T03:21:50;4.27;;;1.73;;
7661;SDS011;30314;48.184;11.510;2022-07-29T03:24:28;2.17;;;1.60;;
7661;SDS011;30314;48.184;11.510;2022-07-29T03:26:58;4.30;;;1.70;;
7661;SDS011;30314;48.184;11.510;2022-07-29T03:29:26;2.20;;;1.50;;
7661;SDS011;30314;48.184;11.510;2022-07-29T03:31:59;1.93;;;1.73;;
7661;SDS011;30314;48.184;11.510;2022-07-29T03:34:34;1.83;;;1.40;;
7661;SDS011;30314;48.184;11.510;2022-07-29T03:37:03;2.97;;;2.03;;
7661;SDS011;30314;48.184;11.510;2022-07-29T03:39:33;2.43;;;1.80;;
7661;SDS011;30314;48.184;11.510;2022-07-29T03:42:04;1.70;;;1.60;;
7661;SDS011;30314;48.184;11.510;2022-07-29T03:44:37;2.47;;;1.80;;
7661;SDS011;30314;48.184;11.510;2022-07-29T03:47:08;2.40;;;1.80;;
7661;SDS011;30314;48.184;11.510;2022-07-29T03:49:39;2.83;;;2.03;;
7661;SDS011;30314;48.184;11.510;2022-07-29T03:52:08;3.80;;;2.30;;
7661;SDS011;30314;48.184;11.510;2022-07-29T03:54:36;3.93;;;2.00;;
7661;SDS011;30314;48.184;11.510;2022-07-29T03:57:04;2.60;;;1.60;;
7661;SDS011;30314;48.184;11.510;2022-07-29T03:59:33;6.50;;;1.97;;
7661;SDS011;30314;48.184;11.510;2022-07-29T04:02:02;2.70;;;1.97;;
7661;SDS011;30314;48.184;11.510;2022-07-29T04:04:32;5.50;;;2.20;;
7661;SDS011;30314;48.184;11.510;2022-07-29T04:07:02;4.50;;;2.17;;
7661;SDS011;30314;48.184;11.510;2022-07-29T04:09:30;6.03;;;2.60;;
7661;SDS011;30314;48.184;11.510;2022-07-29T04:11:59;5.70;;;2.37;;
7661;SDS011;30314;48.184;11.510;2022-07-29T04:14:30;3.50;;;2.20;;
7661;SDS011;30314;48.184;11.510;2022-07-29T04:16:59;5.87;;;2.30;;
7661;SDS011;30314;48.184;11.510;2022-07-29T04:19:27;7.37;;;3.60;;
7661;SDS011;30314;48.184;11.510;2022-07-29T04:21:55;5.37;;;2.60;;
7661;SDS011;30314;48.184;11.510;2022-07-29T04:24:24;5.47;;;3.13;;
7661;SDS011;30314;48.184;11.510;2022-07-29T04:26:52;8.47;;;3.80;;
7661;SDS011;30314;48.184;11.510;2022-07-29T04:29:20;8.03;;;3.07;;
7661;SDS011;30314;48.184;11.510;2022-07-29T04:31:47;4.50;;;2.83;;
7661;SDS011;30314;48.184;11.510;2022-07-29T04:34:15;5.97;;;2.23;;
7661;SDS011;30314;48.184;11.510;2022-07-29T04:36:44;3.07;;;2.40;;
7661;SDS011;30314;48.184;11.510;2022-07-29T04:39:12;3.20;;;1.80;;
7661;SDS011;30314;48.184;11.510;2022-07-29T04:41:48;3.30;;;2.00;;
7661;SDS011;30314;48.184;11.510;2022-07-29T04:44:21;5.00;;;2.20;;
7661;SDS011;30314;48.184;11.510;2022-07-29T04:46:56;5.20;;;2.50;;
7661;SDS011;30314;48.184;11.510;2022-07-29T04:49:24;5.00;;;2.97;;
7661;SDS011;30314;48.184;11.510;2022-07-29T04:51:52;4.47;;;1.93;;
7661;SDS011;30314;48.184;11.510;2022-07-29T04:54:20;2.80;;;2.20;;
7661;SDS011;30314;48.184;11.510;2022-07-29T04:56:50;4.03;;;2.40;;
7661;SDS011;30314;48.184;11.510;2022-07-29T04:59:18;3.30;;;2.40;;
7661;SDS011;30314;48.184;11.510;2022-07-29T05:01:45;3.57;;;1.93;;
7661;SDS011;30314;48.184;11.510;2022-07-29T05:04:13;3.43;;;2.00;;
7661;SDS011;30314;48.184;11.510;2022-07-29T05:06:42;3.63;;;2.70;;
7661;SDS011;30314;48.184;11.510;2022-07-29T05:09:09;5.73;;;2.83;;
7661;SDS011;30314;48.184;11.510;2022-07-29T05:11:37;3.47;;;2.73;;
7661;SDS011;30314;48.184;11.510;2022-07-29T05:14:06;7.10;;;2.17;;
7661;SDS011;30314;48.184;11.510;2022-07-29T05:16:34;4.23;;;2.80;;
7661;SDS011;30314;48.184;11.510;2022-07-29T05:19:02;3.30;;;2.27;;
7661;SDS011;30314;48.184;11.510;2022-07-29T05:21:30;4.87;;;2.70;;
7661;SDS011;30314;48.184;11.510;2022-07-29T05:23:57;2.50;;;2.30;;
7661;SDS011;30314;48.184;11.510;2022-07-29T05:26:25;3.57;;;2.90;;
7661;SDS011;30314;48.184;11.510;2022-07-29T05:28:53;5.00;;;2.87;;
7661;SDS011;30314;48.184;11.510;2022-07-29T05:31:22;3.50;;;2.40;;
7661;SDS011;30314;48.184;11.510;2022-07-29T05:33:50;5.27;;;3.10;;
7661;SDS011;30314;48.184;11.510;2022-07-29T05:36:18;5.83;;;2.30;;
7661;SDS011;30314;48.184;11.510;2022-07-29T05:38:46;3.90;;;2.67;;
7661;SDS011;30314;48.184;11.510;2022-07-29T05:41:13;4.60;;;2.30;;
7661;SDS011;30314;48.184;11.510;2022-07-29T05:43:41;3.07;;;2.33;;
7661;SDS011;30314;48.184;11.510;2022-07-29T05:46:09;4.17;;;2.10;;
7661;SDS011;30314;48.184;11.510;2022-07-29T05:48:39;3.40;;;2.23;;
7661;SDS011;30314;48.184;11.510;2022-07-29T05:51:07;4.90;;;2.37;;
7661;SDS011;30314;48.184;11.510;2022-07-29T05:53:35;2.37;;;2.17;;
7661;SDS011;30314;48.184;11.510;2022-07-29T05:56:03;3.33;;;2.20;;
7661;SDS011;30314;48.184;11.510;2022-07-29T05:58:32;3.50;;;2.60;;
7661;SDS011;30314;48.184;11.510;2022-07-29T06:00:59;3.50;;;2.00;;
7661;SDS011;30314;48.184;11.510;2022-07-29T06:03:27;2.83;;;2.00;;
7661;SDS011;30314;48.184;11.510;2022-07-29T06:05:57;2.30;;;1.57;;
7661;SDS011;30314;48.184;11.510;2022-07-29T06:08:25;3.17;;;2.07;;
7661;SDS011;30314;48.184;11.510;2022-07-29T06:10:53;3.37;;;2.10;;
7661;SDS011;30314;48.184;11.510;2022-07-29T06:13:20;2.67;;;2.03;;
7661;SDS011;30314;48.184;11.510;2022-07-29T06:15:48;3.00;;;1.90;;
7661;SDS011;30314;48.184;11.510;2022-07-29T06:18:16;5.00;;;2.30;;
7661;SDS011;30314;48.184;11.510;2022-07-29T06:20:44;5.73;;;2.60;;
7661;SDS011;30314;48.184;11.510;2022-07-29T06:23:13;4.30;;;2.37;;
7661;SDS011;30314;48.184;11.510;2022-07-29T06:25:41;3.40;;;1.60;;
7661;SDS011;30314;48.184;11.510;2022-07-29T06:28:09;4.27;;;1.67;;
7661;SDS011;30314;48.184;11.510;2022-07-29T06:30:38;3.30;;;1.63;;
7661;SDS011;30314;48.184;11.510;2022-07-29T06:33:07;2.57;;;1.67;;
7661;SDS011;30314;48.184;11.510;2022-07-29T06:35:35;6.37;;;2.07;;
7661;SDS011;30314;48.184;11.510;2022-07-29T06:38:08;5.40;;;1.80;;
7661;SDS011;30314;48.184;11.510;2022-07-29T06:40:57;2.70;;;1.40;;
7661;SDS011;30314;48.184;11.510;2022-07-29T06:43:29;2.40;;;1.97;;
7661;SDS011;30314;48.184;11.510;2022-07-29T06:46:00;6.17;;;2.20;;
7661;SDS011;30314;48.184;11.510;2022-07-29T06:48:29;4.47;;;2.37;;
7661;SDS011;30314;48.184;11.510;2022-07-29T06:50:57;2.67;;;1.50;;
7661;SDS011;30314;48.184;11.510;2022-07-29T06:53:26;4.20;;;1.80;;
7661;SDS011;30314;48.184;11.510;2022-07-29T06:55:54;2.40;;;1.73;;
7661;SDS011;30314;48.184;11.510;2022-07-29T06:58:23;1.93;;;1.63;;
7661;SDS011;30314;48.184;11.510;2022-07-29T07:00:54;3.23;;;1.30;;
7661;SDS011;30314;48.184;11.510;2022-07-29T07:03:23;2.80;;;1.47;;
7661;SDS011;30314;48.184;11.510;2022-07-29T07:05:51;2.03;;;1.47;;
7661;SDS011;30314;48.184;11.510;2022-07-29T07:08:19;2.57;;;1.20;;
7661;SDS011;30314;48.184;11.510;2022-07-29T07:10:48;3.47;;;1.60;;
7661;SDS011;30314;48.184;11.510;2022-07-29T07:13:16;3.23;;;1.70;;
7661;SDS011;30314;48.184;11.510;2022-07-29T07:15:46;2.23;;;1.40;;
7661;SDS011;30314;48.184;11.510;2022-07-29T07:18:15;8.30;;;1.50;;
7661;SDS011;30314;48.184;11.510;2022-07-29T07:20:43;3.30;;;1.70;;
7661;SDS011;30314;48.184;11.510;2022-07-29T07:23:11;4.37;;;1.80;;
7661;SDS011;30314;48.184;11.510;2022-07-29T07:25:38;1.87;;;1.47;;
7661;SDS011;30314;48.184;11.510;2022-07-29T07:28:06;4.87;;;1.40;;
7661;SDS011;30314;48.184;11.510;2022-07-29T07:30:34;1.47;;;1.17;;
7661;SDS011;30314;48.184;11.510;2022-07-29T07:33:03;1.93;;;1.30;;
7661;SDS011;30314;48.184;11.510;2022-07-29T07:35:32;5.40;;;1.70;;
7661;SDS011;30314;48.184;11.510;2022-07-29T07:38:00;1.90;;;1.07;;
7661;SDS011;30314;48.184;11.510;2022-07-29T07:40:27;3.63;;;1.27;;
7661;SDS011;30314;48.184;11.510;2022-07-29T07:42:55;6.10;;;1.03;;
7661;SDS011;30314;48.184;11.510;2022-07-29T07:45:23;3.43;;;0.97;;
7661;SDS011;30314;48.184;11.510;2022-07-29T07:47:51;2.60;;;1.33;;
7661;SDS011;30314;48.184;11.510;2022-07-29T07:50:20;3.43;;;1.30;;
7661;SDS011;30314;48.184;11.510;2022-07-29T07:52:49;10.40;;;2.17;;
7661;SDS011;30314;48.184;11.510;2022-07-29T07:55:18;1.77;;;1.20;;
7661;SDS011;30314;48.184;11.510;2022-07-29T07:57:46;1.73;;;1.23;;
7661;SDS011;30314;48.184;11.510;2022-07-29T08:00:16;2.50;;;1.40;;
7661;SDS011;30314;48.184;11.510;2022-07-29T08:02:48;1.70;;;1.10;;
7661;SDS011;30314;48.184;11.510;2022-07-29T08:05:16;4.13;;;1.40;;
7661;SDS011;30314;48.184;11.510;2022-07-29T08:07:46;2.40;;;1.43;;
7661;SDS011;30314;48.184;11.510;2022-07-29T08:10:14;1.60;;;1.17;;
7661;SDS011;30314;48.184;11.510;2022-07-29T08:13:02;4.03;;;1.40;;
7661;SDS011;30314;48.184;11.510;2022-07-29T08:15:30;1.50;;;1.00;;
7661;SDS011;30314;48.184;11.510;2022-07-29T08:17:58;1.70;;;1.20;;
7661;SDS011;30314;48.184;11.510;2022-07-29T08:20:33;1.90;;;1.50;;
7661;SDS011;30314;48.184;11.510;2022-07-29T08:23:03;3.43;;;1.17;;
7661;SDS011;30314;48.184;11.510;2022-07-29T08:25:32;2.57;;;1.47;;
7661;SDS011;30314;48.184;11.510;2022-07-29T08:28:03;2.70;;;1.33;;
7661;SDS011;30314;48.184;11.510;2022-07-29T08:30:31;3.53;;;1.33;;
7661;SDS011;30314;48.184;11.510;2022-07-29T08:32:59;3.70;;;1.40;;
7661;SDS011;30314;48.184;11.510;2022-07-29T08:35:27;1.80;;;1.43;;
7661;SDS011;30314;48.184;11.510;2022-07-29T08:38:02;4.37;;;1.40;;
7661;SDS011;30314;48.184;11.510;2022-07-29T08:40:30;3.33;;;1.77;;
7661;SDS011;30314;48.184;11.510;2022-07-29T08:42:58;1.80;;;1.40;;
7661;SDS011;30314;48.184;11.510;2022-07-29T08:45:34;3.27;;;1.70;;
7661;SDS011;30314;48.184;11.510;2022-07-29T08:48:13;2.47;;;1.77;;
7661;SDS011;30314;48.184;11.510;2022-07-29T08:50:43;3.00;;;1.33;;
7661;SDS011;30314;48.184;11.510;2022-07-29T08:53:14;5.47;;;1.80;;
7661;SDS011;30314;48.184;11.510;2022-07-29T08:55:43;2.03;;;1.23;;
7661;SDS011;30314;48.184;11.510;2022-07-29T08:58:12;5.70;;;2.10;;
7661;SDS011;30314;48.184;11.510;2022-07-29T09:00:42;2.10;;;1.60;;
7661;SDS011;30314;48.184;11.510;2022-07-29T09:03:17;2.00;;;1.70;;
7661;SDS011;30314;48.184;11.510;2022-07-29T09:05:47;4.50;;;1.90;;
7661;SDS011;30314;48.184;11.510;2022-07-29T09:08:17;1.57;;;1.17;;
7661;SDS011;30314;48.184;11.510;2022-07-29T09:10:46;2.27;;;1.80;;
7661;SDS011;30314;48.184;11.510;2022-07-29T09:13:14;3.90;;;1.83;;
7661;SDS011;30314;48.184;11.510;2022-07-29T09:15:42;1.90;;;1.70;;
7661;SDS011;30314;48.184;11.510;2022-07-29T09:18:10;1.73;;;1.23;;
7661;SDS011;30314;48.184;11.510;2022-07-29T09:20:56;3.17;;;1.50;;
7661;SDS011;30314;48.184;11.510;2022-07-29T09:23:45;5.00;;;1.97;;
7661;SDS011;30314;48.184;11.510;2022-07-29T09:26:29;4.67;;;1.40;;
7661;SDS011;30314;48.184;11.510;2022-07-29T09:28:58;1.97;;;1.67;;
7661;SDS011;30314;48.184;11.510;2022-07-29T09:31:31;1.60;;;1.50;;
7661;SDS011;30314;48.184;11.510;2022-07-29T09:34:01;6.13;;;2.10;;
7661;SDS011;30314;48.184;11.510;2022-07-29T09:36:28;2.07;;;1.83;;
7661;SDS011;30314;48.184;11.510;2022-07-29T09:38:58;5.07;;;2.27;;
7661;SDS011;30314;48.184;11.510;2022-07-29T09:41:27;5.50;;;2.10;;
7661;SDS011;30314;48.184;11.510;2022-07-29T09:43:55;3.40;;;2.00;;
7661;SDS011;30314;48.184;11.510;2022-07-29T09:46:24;3.13;;;2.07;;
7661;SDS011;30314;48.184;11.510;2022-07-29T09:49:08;1.87;;;1.77;;
7661;SDS011;30314;48.184;11.510;2022-07-29T09:51:37;3.03;;;2.03;;
7661;SDS011;30314;48.184;11.510;2022-07-29T09:54:23;3.17;;;2.00;;
7661;SDS011;30314;48.184;11.510;2022-07-29T09:56:51;4.50;;;2.17;;
7661;SDS011;30314;48.184;11.510;2022-07-29T09:59:20;3.87;;;2.40;;
7661;SDS011;30314;48.184;11.510;2022-07-29T10:01:52;2.70;;;2.10;;
7661;SDS011;30314;48.184;11.510;2022-07-29T10:04:20;9.80;;;2.30;;
7661;SDS011;30314;48.184;11.510;2022-07-29T10:06:55;3.63;;;2.47;;
7661;SDS011;30314;48.184;11.510;2022-07-29T10:09:31;3.13;;;2.13;;
7661;SDS011;30314;48.184;11.510;2022-07-29T10:12:03;2.13;;;1.93;;
7661;SDS011;30314;48.184;11.510;2022-07-29T10:14:35;4.23;;;1.83;;
7661;SDS011;30314;48.184;11.510;2022-07-29T10:17:04;2.80;;;2.20;;
7661;SDS011;30314;48.184;11.510;2022-07-29T10:19:34;2.00;;;1.83;;
7661;SDS011;30314;48.184;11.510;2022-07-29T10:22:04;2.33;;;1.77;;
7661;SDS011;30314;48.184;11.510;2022-07-29T10:24:34;2.80;;;1.80;;
7661;SDS011;30314;48.184;11.510;2022-07-29T10:27:04;2.97;;;2.27;;
7661;SDS011;30314;48.184;11.510;2022-07-29T10:29:33;3.10;;;2.30;;
7661;SDS011;30314;48.184;11.510;2022-07-29T10:32:07;3.63;;;2.23;;
7661;SDS011;30314;48.184;11.510;2022-07-29T10:34:47;6.03;;;2.37;;
7661;SDS011;30314;48.184;11.510;2022-07-29T10:37:26;2.47;;;1.80;;
7661;SDS011;30314;48.184;11.510;2022-07-29T10:40:06;3.63;;;2.07;;
7661;SDS011;30314;48.184;11.510;2022-07-29T10:43:03;3.53;;;2.70;;
7661;SDS011;30314;48.184;11.510;2022-07-29T10:45:42;4.53;;;2.13;;
7661;SDS011;30314;48.184;11.510;2022-07-29T10:48:11;6.90;;;2.23;;
7661;SDS011;30314;48.184;11.510;2022-07-29T10:50:53;5.63;;;2.30;;
7661;SDS011;30314;48.184;11.510;2022-07-29T10:53:22;4.20;;;2.23;;
7661;SDS011;30314;48.184;11.510;2022-07-29T10:55:53;4.30;;;2.40;;
7661;SDS011;30314;48.184;11.510;2022-07-29T10:58:22;2.80;;;2.13;;
7661;SDS011;30314;48.184;11.510;2022-07-29T11:00:51;2.60;;;2.40;;
7661;SDS011;30314;48.184;11.510;2022-07-29T11:06:16;6.00;;;2.20;;
7661;SDS011;30314;48.184;11.510;2022-07-29T11:12:05;4.43;;;2.30;;
7661;SDS011;30314;48.184;11.510;2022-07-29T11:15:20;3.67;;;2.20;;
7661;SDS011;30314;48.184;11.510;2022-07-29T11:18:03;3.50;;;2.17;;
7661;SDS011;30314;48.184;11.510;2022-07-29T11:20:43;2.33;;;1.93;;
7661;SDS011;30314;48.184;11.510;2022-07-29T11:23:19;2.27;;;1.67;;
7661;SDS011;30314;48.184;11.510;2022-07-29T11:26:16;6.83;;;2.27;;
7661;SDS011;30314;48.184;11.510;2022-07-29T11:28:51;3.20;;;2.07;;
7661;SDS011;30314;48.184;11.510;2022-07-29T11:31:31;3.40;;;1.93;;
7661;SDS011;30314;48.184;11.510;2022-07-29T11:34:24;5.03;;;2.30;;
7661;SDS011;30314;48.184;11.510;2022-07-29T11:37:16;3.37;;;2.00;;
7661;SDS011;30314;48.184;11.510;2022-07-29T11:40:15;7.17;;;2.33;;
7661;SDS011;30314;48.184;11.510;2022-07-29T11:42:45;7.13;;;2.00;;
7661;SDS011;30314;48.184;11.510;2022-07-29T11:45:20;4.47;;;2.30;;
7661;SDS011;30314;48.184;11.510;2022-07-29T11:48:14;6.30;;;1.77;;
7661;SDS011;30314;48.184;11.510;2022-07-29T11:51:04;3.10;;;1.90;;
7661;SDS011;30314;48.184;11.510;2022-07-29T11:53:38;2.60;;;1.70;;
7661;SDS011;30314;48.184;11.510;2022-07-29T11:56:08;2.70;;;1.87;;
7661;SDS011;30314;48.184;11.510;2022-07-29T11:58:41;3.07;;;1.80;;
7661;SDS011;30314;48.184;11.510;2022-07-29T12:01:13;5.90;;;1.80;;
7661;SDS011;30314;48.184;11.510;2022-07-29T12:03:44;7.80;;;2.03;;
7661;SDS011;30314;48.184;11.510;2022-07-29T12:06:13;2.90;;;1.83;;
7661;SDS011;30314;48.184;11.510;2022-07-29T12:08:43;2.17;;;1.80;;
7661;SDS011;30314;48.184;11.510;2022-07-29T12:11:19;5.33;;;1.87;;
7661;SDS011;30314;48.184;11.510;2022-07-29T12:13:49;3.50;;;2.20;;
7661;SDS011;30314;48.184;11.510;2022-07-29T12:16:20;10.63;;;2.40;;
7661;SDS011;30314;48.184;11.510;2022-07-29T12:18:55;7.00;;;1.80;;
7661;SDS011;30314;48.184;11.510;2022-07-29T12:21:23;2.50;;;1.80;;
7661;SDS011;30314;48.184;11.510;2022-07-29T12:23:54;6.33;;;1.73;;
7661;SDS011;30314;48.184;11.510;2022-07-29T12:26:30;3.63;;;2.07;;
7661;SDS011;30314;48.184;11.510;2022-07-29T12:29:01;6.37;;;2.07;;
7661;SDS011;30314;48.184;11.510;2022-07-29T12:31:38;1.93;;;1.17;;
7661;SDS011;30314;48.184;11.510;2022-07-29T12:34:10;5.93;;;2.60;;
7661;SDS011;30314;48.184;11.510;2022-07-29T12:36:38;3.70;;;1.83;;
7661;SDS011;30314;48.184;11.510;2022-07-29T12:39:08;4.60;;;1.73;;
7661;SDS011;30314;48.184;11.510;2022-07-29T12:41:36;8.47;;;2.13;;
7661;SDS011;30314;48.184;11.510;2022-07-29T12:44:04;3.57;;;1.80;;
7661;SDS011;30314;48.184;11.510;2022-07-29T12:46:32;3.63;;;1.87;;
7661;SDS011;30314;48.184;11.510;2022-07-29T12:49:02;2.40;;;1.67;;
7661;SDS011;30314;48.184;11.510;2022-07-29T12:51:31;7.20;;;2.07;;
7661;SDS011;30314;48.184;11.510;2022-07-29T12:54:04;3.43;;;1.60;;
7661;SDS011;30314;48.184;11.510;2022-07-29T12:56:34;4.13;;;1.87;;
7661;SDS011;30314;48.184;11.510;2022-07-29T12:59:11;3.77;;;1.80;;
7661;SDS011;30314;48.184;11.510;2022-07-29T13:01:40;2.43;;;1.53;;
7661;SDS011;30314;48.184;11.510;2022-07-29T13:04:09;3.13;;;1.63;;
7661;SDS011;30314;48.184;11.510;2022-07-29T13:06:38;2.50;;;1.70;;
7661;SDS011;30314;48.184;11.510;2022-07-29T13:09:12;7.90;;;1.73;;
7661;SDS011;30314;48.184;11.510;2022-07-29T13:11:41;2.43;;;2.23;;
7661;SDS011;30314;48.184;11.510;2022-07-29T13:14:14;3.87;;;2.00;;
7661;SDS011;30314;48.184;11.510;2022-07-29T13:17:01;4.33;;;2.10;;
7661;SDS011;30314;48.184;11.510;2022-07-29T13:19:33;3.43;;;1.87;;
7661;SDS011;30314;48.184;11.510;2022-07-29T13:22:03;5.17;;;2.30;;
7661;SDS011;30314;48.184;11.510;2022-07-29T13:24:31;2.40;;;1.80;;
7661;SDS011;30314;48.184;11.510;2022-07-29T13:26:58;6.30;;;2.30;;
7661;SDS011;30314;48.184;11.510;2022-07-29T13:29:30;2.37;;;2.10;;
7661;SDS011;30314;48.184;11.510;2022-07-29T13:31:58;7.83;;;1.87;;
7661;SDS011;30314;48.184;11.510;2022-07-29T13:34:26;3.73;;;1.60;;
7661;SDS011;30314;48.184;11.510;2022-07-29T13:36:55;5.03;;;2.03;;
7661;SDS011;30314;48.184;11.510;2022-07-29T13:39:23;2.63;;;2.10;;
7661;SDS011;30314;48.184;11.510;2022-07-29T13:41:51;5.03;;;2.03;;
7661;SDS011;30314;48.184;11.510;2022-07-29T13:44:18;2.53;;;1.80;;
7661;SDS011;30314;48.184;11.510;2022-07-29T13:46:46;6.13;;;1.87;;
7661;SDS011;30314;48.184;11.510;2022-07-29T13:49:14;4.07;;;1.83;;
7661;SDS011;30314;48.184;11.510;2022-07-29T13:51:42;3.40;;;1.40;;
7661;SDS011;30314;48.184;11.510;2022-07-29T13:54:11;3.93;;;1.70;;
7661;SDS011;30314;48.184;11.510;2022-07-29T13:56:38;1.77;;;1.30;;
7661;SDS011;30314;48.184;11.510;2022-07-29T13:59:06;2.97;;;1.67;;
7661;SDS011;30314;48.184;11.510;2022-07-29T14:01:35;2.90;;;1.60;;
7661;SDS011;30314;48.184;11.510;2022-07-29T14:04:03;2.27;;;1.40;;
7661;SDS011;30314;48.184;11.510;2022-07-29T14:06:30;2.90;;;1.90;;
7661;SDS011;30314;48.184;11.510;2022-07-29T14:08:58;2.73;;;1.53;;
7661;SDS011;30314;48.184;11.510;2022-07-29T14:11:27;2.60;;;1.37;;
7661;SDS011;30314;48.184;11.510;2022-07-29T14:13:55;2.00;;;1.60;;
7661;SDS011;30314;48.184;11.510;2022-07-29T14:16:23;3.63;;;2.03;;
7661;SDS011;30314;48.184;11.510;2022-07-29T14:18:50;3.93;;;1.97;;
7661;SDS011;30314;48.184;11.510;2022-07-29T14:21:18;4.97;;;1.73;;
7661;SDS011;30314;48.184;11.510;2022-07-29T14:23:46;3.17;;;1.90;;
7661;SDS011;30314;48.184;11.510;2022-07-29T14:26:14;2.67;;;1.30;;
7661;SDS011;30314;48.184;11.510;2022-07-29T14:28:50;2.90;;;1.70;;
7661;SDS011;30314;48.184;11.510;2022-07-29T14:31:18;3.23;;;1.83;;
7661;SDS011;30314;48.184;11.510;2022-07-29T14:33:46;2.23;;;1.40;;
7661;SDS011;30314;48.184;11.510;2022-07-29T14:36:14;5.37;;;1.80;;
7661;SDS011;30314;48.184;11.510;2022-07-29T14:38:42;4.27;;;1.87;;
7661;SDS011;30314;48.184;11.510;2022-07-29T14:41:10;3.50;;;2.20;;
7661;SDS011;30314;48.184;11.510;2022-07-29T14:43:38;4.33;;;1.63;;
7661;SDS011;30314;48.184;11.510;2022-07-29T14:46:07;7.67;;;1.90;;
7661;SDS011;30314;48.184;11.510;2022-07-29T14:48:35;1.93;;;1.57;;
7661;SDS011;30314;48.184;11.510;2022-07-29T14:51:02;8.63;;;2.20;;
7661;SDS011;30314;48.184;11.510;2022-07-29T14:53:30;3.07;;;1.70;;
7661;SDS011;30314;48.184;11.510;2022-07-29T14:55:58;5.97;;;2.40;;
7661;SDS011;30314;48.184;11.510;2022-07-29T14:58:46;2.50;;;1.63;;
7661;SDS011;30314;48.184;11.510;2022-07-29T15:01:18;2.50;;;1.87;;
7661;SDS011;30314;48.184;11.510;2022-07-29T15:03:46;4.60;;;1.90;;
7661;SDS011;30314;48.184;11.510;2022-07-29T15:06:14;4.13;;;1.80;;
7661;SDS011;30314;48.184;11.510;2022-07-29T15:08:41;3.00;;;2.00;;
7661;SDS011;30314;48.184;11.510;2022-07-29T15:11:09;2.10;;;1.87;;
7661;SDS011;30314;48.184;11.510;2022-07-29T15:13:37;3.00;;;1.77;;
7661;SDS011;30314;48.184;11.510;2022-07-29T15:16:05;3.10;;;2.47;;
7661;SDS011;30314;48.184;11.510;2022-07-29T15:18:34;3.80;;;2.23;;